PMZ weather

Plymouth Municipal Airport
Plymouth, North Carolina, United States

Public forecast

Using degrees Fahrenheit for public forecast. Weather courtesy of forecast.io.

METAR (pilot weather report)

Closest report is Northeastern Regional Airport, 16.1 nm (29.9 km) NE. Retrieved 2019/04/26 05:40 UTC (3 minutes ago):

KEDE 260540Z AUTO 21008KT 10SM CLR 22/17 A2984 RMK AO2 T02240173

TAF (pilot weather forecast)

Forecast is more than 12 hours old.

Closest forecast is Pitt Greenville Airport, 32.2 nm (59.7 km) WSW. Retrieved 2019/04/25 00:33 UTC (1 day ago):

TAF KPGV 252331Z 2600/2624 18004KT P6SM BKN150 FM261300 19011G20KT P6SM VCSH SCT025 OVC040 FM261700 21016G24KT 6SM SHRA VCTS SCT025CB OVC050 AMD LTD TO CLD VIS AND WIND